Terminal Aerodrome Forecast
Issued by NWS Mobile, AL

Home | Current Version | Previous Version | Text Only | Print | Product List | Glossary On
Versions: 1 2 3 4 5 6 7 8 9 10 11 12 13
000
FTUS44 KMOB 230524
TAFPNS
TAF
KPNS 230524Z 2306/2406 00000KT P6SM SKC
     FM231200 VRB03KT P6SM VCSH BKN050
     FM231500 14006KT P6SM VCTS SCT030CB BKN250
      TEMPO 2317/2320 VRB15KT 2SM TSRA BKN010CB
     FM240000 25004KT P6SM BKN250=

USA.gov is the U.S. government's official web portal to all federal, state and local government web resources and services.